Terminal Aerodrome Forecast
Issued by NWS Memphis, TN

Home | Current Version | Previous Version | Text Only | Print | Product List | Glossary On
Versions: 1 2 3 4 5 6 7 8 9 10 11 12
730
FTUS44 KMEG 131121
TAFMKL
TAF
KMKL 131121Z 1312/1412 02010G15KT P6SM BKN100
     FM132100 05004KT P6SM FEW060 SCT100
     FM140900 08006KT P6SM FEW045 BKN060=

USA.gov is the U.S. government's official web portal to all federal, state and local government web resources and services.